sensor_id;sensor_type;location;lat;lon;timestamp;temperature;humidity
6879;DHT22;3478;51.462;7.338;2023-08-08T00:01:42;14.20;99.90
6879;DHT22;3478;51.462;7.338;2023-08-08T00:06:45;14.20;99.90
6879;DHT22;3478;51.462;7.338;2023-08-08T00:11:47;14.20;99.90
6879;DHT22;3478;51.462;7.338;2023-08-08T00:16:49;14.30;99.90
6879;DHT22;3478;51.462;7.338;2023-08-08T00:21:53;14.30;99.90
6879;DHT22;3478;51.462;7.338;2023-08-08T00:26:56;14.30;99.90
6879;DHT22;3478;51.462;7.338;2023-08-08T00:31:57;14.30;99.90
6879;DHT22;3478;51.462;7.338;2023-08-08T00:37:01;14.40;99.90
6879;DHT22;3478;51.462;7.338;2023-08-08T00:42:03;14.40;99.90
6879;DHT22;3478;51.462;7.338;2023-08-08T00:47:05;14.40;99.90
6879;DHT22;3478;51.462;7.338;2023-08-08T00:52:09;14.40;99.90
6879;DHT22;3478;51.462;7.338;2023-08-08T00:57:11;14.40;99.90
6879;DHT22;3478;51.462;7.338;2023-08-08T01:02:13;14.40;99.90
6879;DHT22;3478;51.462;7.338;2023-08-08T01:07:24;14.40;99.90
6879;DHT22;3478;51.462;7.338;2023-08-08T01:12:28;14.40;99.90
6879;DHT22;3478;51.462;7.338;2023-08-08T01:17:30;14.40;99.90
6879;DHT22;3478;51.462;7.338;2023-08-08T01:22:37;14.40;99.90
6879;DHT22;3478;51.462;7.338;2023-08-08T01:27:43;14.30;99.90
6879;DHT22;3478;51.462;7.338;2023-08-08T01:32:44;14.30;99.90
6879;DHT22;3478;51.462;7.338;2023-08-08T01:37:50;14.30;99.90
6879;DHT22;3478;51.462;7.338;2023-08-08T01:42:55;14.20;99.90
6879;DHT22;3478;51.462;7.338;2023-08-08T01:47:58;14.20;99.90
6879;DHT22;3478;51.462;7.338;2023-08-08T01:53:00;14.30;99.90
6879;DHT22;3478;51.462;7.338;2023-08-08T01:58:03;14.20;99.90
6879;DHT22;3478;51.462;7.338;2023-08-08T02:03:05;14.10;99.90
6879;DHT22;3478;51.462;7.338;2023-08-08T02:08:07;14.10;99.90
6879;DHT22;3478;51.462;7.338;2023-08-08T02:13:10;14.10;99.90
6879;DHT22;3478;51.462;7.338;2023-08-08T02:18:12;14.10;99.90
6879;DHT22;3478;51.462;7.338;2023-08-08T02:23:14;14.00;99.90
6879;DHT22;3478;51.462;7.338;2023-08-08T02:28:17;14.00;99.90
6879;DHT22;3478;51.462;7.338;2023-08-08T02:33:19;14.00;99.90
6879;DHT22;3478;51.462;7.338;2023-08-08T02:38:21;14.00;99.90
6879;DHT22;3478;51.462;7.338;2023-08-08T02:43:24;14.10;99.90
6879;DHT22;3478;51.462;7.338;2023-08-08T02:48:26;14.10;99.90
6879;DHT22;3478;51.462;7.338;2023-08-08T02:53:28;14.10;99.90
6879;DHT22;3478;51.462;7.338;2023-08-08T02:58:31;14.10;99.90
6879;DHT22;3478;51.462;7.338;2023-08-08T03:03:33;14.10;99.90
6879;DHT22;3478;51.462;7.338;2023-08-08T03:08:35;14.20;99.90
6879;DHT22;3478;51.462;7.338;2023-08-08T03:13:38;14.20;99.90
6879;DHT22;3478;51.462;7.338;2023-08-08T03:18:40;14.20;99.90
6879;DHT22;3478;51.462;7.338;2023-08-08T03:23:42;14.10;99.90
6879;DHT22;3478;51.462;7.338;2023-08-08T03:28:45;14.10;99.90
6879;DHT22;3478;51.462;7.338;2023-08-08T03:33:50;14.10;99.90
6879;DHT22;3478;51.462;7.338;2023-08-08T03:38:52;14.10;99.90
6879;DHT22;3478;51.462;7.338;2023-08-08T03:43:56;14.00;99.90
6879;DHT22;3478;51.462;7.338;2023-08-08T03:48:58;14.00;99.90
6879;DHT22;3478;51.462;7.338;2023-08-08T03:53:59;13.90;99.90
6879;DHT22;3478;51.462;7.338;2023-08-08T03:59:03;13.90;99.90
6879;DHT22;3478;51.462;7.338;2023-08-08T04:04:05;13.80;99.90
6879;DHT22;3478;51.462;7.338;2023-08-08T04:09:06;13.70;99.90
6879;DHT22;3478;51.462;7.338;2023-08-08T04:14:10;13.50;99.90
6879;DHT22;3478;51.462;7.338;2023-08-08T04:19:12;13.40;99.90
6879;DHT22;3478;51.462;7.338;2023-08-08T04:24:13;13.40;99.90
6879;DHT22;3478;51.462;7.338;2023-08-08T04:29:17;13.40;99.90
6879;DHT22;3478;51.462;7.338;2023-08-08T04:34:18;13.40;99.90
6879;DHT22;3478;51.462;7.338;2023-08-08T04:39:20;13.30;99.90
6879;DHT22;3478;51.462;7.338;2023-08-08T04:44:23;13.40;99.90
6879;DHT22;3478;51.462;7.338;2023-08-08T04:49:25;13.40;99.90
6879;DHT22;3478;51.462;7.338;2023-08-08T04:54:29;13.30;99.90
6879;DHT22;3478;51.462;7.338;2023-08-08T04:59:32;13.40;99.90
6879;DHT22;3478;51.462;7.338;2023-08-08T05:04:34;13.40;99.90
6879;DHT22;3478;51.462;7.338;2023-08-08T05:09:36;13.50;99.90
6879;DHT22;3478;51.462;7.338;2023-08-08T05:14:39;13.50;99.90
6879;DHT22;3478;51.462;7.338;2023-08-08T05:19:41;13.60;99.90
6879;DHT22;3478;51.462;7.338;2023-08-08T05:24:43;13.60;99.90
6879;DHT22;3478;51.462;7.338;2023-08-08T05:29:46;13.70;99.90
6879;DHT22;3478;51.462;7.338;2023-08-08T05:34:49;13.70;99.90
6879;DHT22;3478;51.462;7.338;2023-08-08T05:39:51;13.70;99.90
6879;DHT22;3478;51.462;7.338;2023-08-08T05:44:54;13.70;99.90
6879;DHT22;3478;51.462;7.338;2023-08-08T05:49:56;13.60;99.90
6879;DHT22;3478;51.462;7.338;2023-08-08T05:54:58;13.60;99.90
6879;DHT22;3478;51.462;7.338;2023-08-08T06:00:02;13.70;99.90
6879;DHT22;3478;51.462;7.338;2023-08-08T06:05:07;13.70;99.90
6879;DHT22;3478;51.462;7.338;2023-08-08T06:10:09;13.80;99.90
6879;DHT22;3478;51.462;7.338;2023-08-08T06:15:13;13.80;99.90
6879;DHT22;3478;51.462;7.338;2023-08-08T06:20:14;13.90;99.90
6879;DHT22;3478;51.462;7.338;2023-08-08T06:25:17;14.00;99.90
6879;DHT22;3478;51.462;7.338;2023-08-08T06:30:20;13.90;99.90
6879;DHT22;3478;51.462;7.338;2023-08-08T06:35:22;13.90;99.90
6879;DHT22;3478;51.462;7.338;2023-08-08T06:40:24;13.90;99.90
6879;DHT22;3478;51.462;7.338;2023-08-08T06:45:27;13.90;99.90
6879;DHT22;3478;51.462;7.338;2023-08-08T06:50:29;14.10;99.90
6879;DHT22;3478;51.462;7.338;2023-08-08T06:55:31;14.20;99.90
6879;DHT22;3478;51.462;7.338;2023-08-08T07:00:34;14.30;99.90
6879;DHT22;3478;51.462;7.338;2023-08-08T07:05:36;14.30;99.90
6879;DHT22;3478;51.462;7.338;2023-08-08T07:10:38;14.30;99.90
6879;DHT22;3478;51.462;7.338;2023-08-08T07:15:41;14.30;99.90
6879;DHT22;3478;51.462;7.338;2023-08-08T07:20:43;14.40;99.90
6879;DHT22;3478;51.462;7.338;2023-08-08T07:25:45;14.50;99.90
6879;DHT22;3478;51.462;7.338;2023-08-08T07:30:48;14.50;99.90
6879;DHT22;3478;51.462;7.338;2023-08-08T07:35:50;14.70;99.90
6879;DHT22;3478;51.462;7.338;2023-08-08T07:40:52;14.70;99.90
6879;DHT22;3478;51.462;7.338;2023-08-08T07:45:55;15.10;99.90
6879;DHT22;3478;51.462;7.338;2023-08-08T07:50:57;15.40;99.90
6879;DHT22;3478;51.462;7.338;2023-08-08T07:55:59;15.20;99.90
6879;DHT22;3478;51.462;7.338;2023-08-08T08:01:02;15.40;99.90
6879;DHT22;3478;51.462;7.338;2023-08-08T08:06:04;15.40;99.90
6879;DHT22;3478;51.462;7.338;2023-08-08T08:11:06;15.40;99.90
6879;DHT22;3478;51.462;7.338;2023-08-08T08:16:09;15.50;99.90
6879;DHT22;3478;51.462;7.338;2023-08-08T08:21:11;15.60;99.90
6879;DHT22;3478;51.462;7.338;2023-08-08T08:26:14;15.80;99.90
6879;DHT22;3478;51.462;7.338;2023-08-08T08:31:17;16.00;99.90
6879;DHT22;3478;51.462;7.338;2023-08-08T08:36:19;16.20;99.90
6879;DHT22;3478;51.462;7.338;2023-08-08T08:41:25;16.20;99.90
6879;DHT22;3478;51.462;7.338;2023-08-08T08:46:29;16.10;99.90
6879;DHT22;3478;51.462;7.338;2023-08-08T08:51:31;16.20;99.90
6879;DHT22;3478;51.462;7.338;2023-08-08T08:56:33;16.40;99.90
6879;DHT22;3478;51.462;7.338;2023-08-08T09:01:37;16.60;99.90
6879;DHT22;3478;51.462;7.338;2023-08-08T09:06:39;16.80;99.90
6879;DHT22;3478;51.462;7.338;2023-08-08T09:11:42;17.00;99.90
6879;DHT22;3478;51.462;7.338;2023-08-08T09:16:46;17.30;99.90
6879;DHT22;3478;51.462;7.338;2023-08-08T09:21:48;17.40;99.90
6879;DHT22;3478;51.462;7.338;2023-08-08T09:26:51;17.40;99.90
6879;DHT22;3478;51.462;7.338;2023-08-08T09:31:54;17.60;99.90
6879;DHT22;3478;51.462;7.338;2023-08-08T09:36:56;17.70;99.90
6879;DHT22;3478;51.462;7.338;2023-08-08T09:41:58;17.50;99.90
6879;DHT22;3478;51.462;7.338;2023-08-08T09:47:01;17.70;99.90
6879;DHT22;3478;51.462;7.338;2023-08-08T09:52:04;17.70;99.90
6879;DHT22;3478;51.462;7.338;2023-08-08T09:57:07;17.80;99.90
6879;DHT22;3478;51.462;7.338;2023-08-08T10:02:13;18.40;99.90
6879;DHT22;3478;51.462;7.338;2023-08-08T10:07:15;18.40;99.90
6879;DHT22;3478;51.462;7.338;2023-08-08T10:12:17;18.20;99.90
6879;DHT22;3478;51.462;7.338;2023-08-08T10:17:21;18.30;99.90
6879;DHT22;3478;51.462;7.338;2023-08-08T10:22:24;18.50;99.90
6879;DHT22;3478;51.462;7.338;2023-08-08T10:27:31;18.40;99.90
6879;DHT22;3478;51.462;7.338;2023-08-08T10:32:43;18.20;99.90
6879;DHT22;3478;51.462;7.338;2023-08-08T10:37:52;18.30;99.90
6879;DHT22;3478;51.462;7.338;2023-08-08T10:42:55;18.60;99.90
6879;DHT22;3478;51.462;7.338;2023-08-08T10:48:07;18.50;99.90
6879;DHT22;3478;51.462;7.338;2023-08-08T10:53:10;18.60;99.90
6879;DHT22;3478;51.462;7.338;2023-08-08T10:58:13;17.70;99.90
6879;DHT22;3478;51.462;7.338;2023-08-08T11:03:17;17.50;99.90
6879;DHT22;3478;51.462;7.338;2023-08-08T11:08:21;17.10;99.90
6879;DHT22;3478;51.462;7.338;2023-08-08T11:13:24;17.00;99.90
6879;DHT22;3478;51.462;7.338;2023-08-08T11:18:27;16.90;99.90
6879;DHT22;3478;51.462;7.338;2023-08-08T11:23:29;16.80;99.90
6879;DHT22;3478;51.462;7.338;2023-08-08T11:28:39;17.00;99.90
6879;DHT22;3478;51.462;7.338;2023-08-08T11:33:42;17.60;99.90
6879;DHT22;3478;51.462;7.338;2023-08-08T11:38:44;17.90;99.90
6879;DHT22;3478;51.462;7.338;2023-08-08T11:43:47;17.80;99.90
6879;DHT22;3478;51.462;7.338;2023-08-08T11:48:50;17.50;99.90
6879;DHT22;3478;51.462;7.338;2023-08-08T11:53:53;17.30;99.90
6879;DHT22;3478;51.462;7.338;2023-08-08T11:58:55;17.20;99.90
6879;DHT22;3478;51.462;7.338;2023-08-08T12:04:03;17.70;99.90
6879;DHT22;3478;51.462;7.338;2023-08-08T12:09:06;19.70;99.90
6879;DHT22;3478;51.462;7.338;2023-08-08T12:14:08;21.00;99.90
6879;DHT22;3478;51.462;7.338;2023-08-08T12:19:12;20.70;99.90
6879;DHT22;3478;51.462;7.338;2023-08-08T12:24:18;20.90;99.90
6879;DHT22;3478;51.462;7.338;2023-08-08T12:29:20;20.90;99.90
6879;DHT22;3478;51.462;7.338;2023-08-08T12:34:23;21.60;99.90
6879;DHT22;3478;51.462;7.338;2023-08-08T12:39:25;20.50;99.90
6879;DHT22;3478;51.462;7.338;2023-08-08T12:44:27;20.50;99.90
6879;DHT22;3478;51.462;7.338;2023-08-08T12:49:30;20.40;99.90
6879;DHT22;3478;51.462;7.338;2023-08-08T12:54:32;20.90;99.90
6879;DHT22;3478;51.462;7.338;2023-08-08T12:59:34;20.80;99.90
6879;DHT22;3478;51.462;7.338;2023-08-08T13:04:37;21.10;99.90
6879;DHT22;3478;51.462;7.338;2023-08-08T13:09:39;20.90;99.90
6879;DHT22;3478;51.462;7.338;2023-08-08T13:14:40;22.60;99.90
6879;DHT22;3478;51.462;7.338;2023-08-08T13:19:44;22.80;99.90
6879;DHT22;3478;51.462;7.338;2023-08-08T13:24:46;21.90;99.90
6879;DHT22;3478;51.462;7.338;2023-08-08T13:29:48;22.20;99.90
6879;DHT22;3478;51.462;7.338;2023-08-08T13:34:51;21.70;99.90
6879;DHT22;3478;51.462;7.338;2023-08-08T13:39:53;21.40;99.90
6879;DHT22;3478;51.462;7.338;2023-08-08T13:44:55;20.60;99.90
6879;DHT22;3478;51.462;7.338;2023-08-08T13:49:59;20.30;99.90
6879;DHT22;3478;51.462;7.338;2023-08-08T13:55:01;20.40;99.90
6879;DHT22;3478;51.462;7.338;2023-08-08T14:00:03;20.00;99.90
6879;DHT22;3478;51.462;7.338;2023-08-08T14:05:08;19.60;99.90
6879;DHT22;3478;51.462;7.338;2023-08-08T14:10:11;19.40;99.90
6879;DHT22;3478;51.462;7.338;2023-08-08T14:15:12;19.20;99.90
6879;DHT22;3478;51.462;7.338;2023-08-08T14:20:16;18.80;99.90
6879;DHT22;3478;51.462;7.338;2023-08-08T14:25:18;18.50;99.90
6879;DHT22;3478;51.462;7.338;2023-08-08T14:30:20;18.70;99.90
6879;DHT22;3478;51.462;7.338;2023-08-08T14:35:23;18.80;99.90
6879;DHT22;3478;51.462;7.338;2023-08-08T14:40:25;18.70;99.90
6879;DHT22;3478;51.462;7.338;2023-08-08T14:45:27;18.50;99.90
6879;DHT22;3478;51.462;7.338;2023-08-08T14:50:32;18.40;99.90
6879;DHT22;3478;51.462;7.338;2023-08-08T14:55:34;18.80;99.90
6879;DHT22;3478;51.462;7.338;2023-08-08T15:00:36;18.90;99.90
6879;DHT22;3478;51.462;7.338;2023-08-08T15:05:40;19.10;99.90
6879;DHT22;3478;51.462;7.338;2023-08-08T15:10:42;19.50;99.90
6879;DHT22;3478;51.462;7.338;2023-08-08T15:15:44;20.20;99.90
6879;DHT22;3478;51.462;7.338;2023-08-08T15:20:47;21.10;99.90
6879;DHT22;3478;51.462;7.338;2023-08-08T15:25:49;20.40;99.90
6879;DHT22;3478;51.462;7.338;2023-08-08T15:30:51;19.50;99.90
6879;DHT22;3478;51.462;7.338;2023-08-08T15:35:54;19.40;99.90
6879;DHT22;3478;51.462;7.338;2023-08-08T15:40:56;19.50;99.90
6879;DHT22;3478;51.462;7.338;2023-08-08T15:45:58;20.10;99.90
6879;DHT22;3478;51.462;7.338;2023-08-08T15:51:01;20.20;99.90
6879;DHT22;3478;51.462;7.338;2023-08-08T15:56:03;20.00;99.90
6879;DHT22;3478;51.462;7.338;2023-08-08T16:01:07;20.00;99.90
6879;DHT22;3478;51.462;7.338;2023-08-08T16:06:10;20.60;99.90
6879;DHT22;3478;51.462;7.338;2023-08-08T16:11:12;21.50;99.90
6879;DHT22;3478;51.462;7.338;2023-08-08T16:16:14;21.30;99.90
6879;DHT22;3478;51.462;7.338;2023-08-08T16:21:17;21.10;99.20
6879;DHT22;3478;51.462;7.338;2023-08-08T16:26:19;20.30;99.90
6879;DHT22;3478;51.462;7.338;2023-08-08T16:31:21;19.80;99.90
6879;DHT22;3478;51.462;7.338;2023-08-08T16:36:24;19.70;99.90
6879;DHT22;3478;51.462;7.338;2023-08-08T16:41:26;19.50;99.90
6879;DHT22;3478;51.462;7.338;2023-08-08T16:46:28;19.10;99.90
6879;DHT22;3478;51.462;7.338;2023-08-08T16:51:31;19.00;99.90
6879;DHT22;3478;51.462;7.338;2023-08-08T16:56:33;19.00;99.90
6879;DHT22;3478;51.462;7.338;2023-08-08T17:01:35;19.40;99.90
6879;DHT22;3478;51.462;7.338;2023-08-08T17:06:43;20.00;99.90
6879;DHT22;3478;51.462;7.338;2023-08-08T17:11:45;19.90;99.90
6879;DHT22;3478;51.462;7.338;2023-08-08T17:16:46;19.80;99.90
6879;DHT22;3478;51.462;7.338;2023-08-08T17:21:50;19.20;99.90
6879;DHT22;3478;51.462;7.338;2023-08-08T17:26:52;18.80;99.90
6879;DHT22;3478;51.462;7.338;2023-08-08T17:31:53;18.70;99.90
6879;DHT22;3478;51.462;7.338;2023-08-08T17:36:57;18.50;99.90
6879;DHT22;3478;51.462;7.338;2023-08-08T17:41:58;18.50;99.90
6879;DHT22;3478;51.462;7.338;2023-08-08T17:47:00;18.40;99.90
6879;DHT22;3478;51.462;7.338;2023-08-08T17:52:05;18.20;99.90
6879;DHT22;3478;51.462;7.338;2023-08-08T17:57:07;18.20;99.90
6879;DHT22;3478;51.462;7.338;2023-08-08T18:02:09;18.20;99.90
6879;DHT22;3478;51.462;7.338;2023-08-08T18:07:12;18.10;99.90
6879;DHT22;3478;51.462;7.338;2023-08-08T18:12:14;18.00;99.90
6879;DHT22;3478;51.462;7.338;2023-08-08T18:17:16;17.80;99.90
6879;DHT22;3478;51.462;7.338;2023-08-08T18:22:20;17.50;99.90
6879;DHT22;3478;51.462;7.338;2023-08-08T18:27:22;17.40;99.90
6879;DHT22;3478;51.462;7.338;2023-08-08T18:32:24;17.20;99.90
6879;DHT22;3478;51.462;7.338;2023-08-08T18:37:28;17.00;99.90
6879;DHT22;3478;51.462;7.338;2023-08-08T18:42:30;16.90;99.90
6879;DHT22;3478;51.462;7.338;2023-08-08T18:47:32;16.90;99.90
6879;DHT22;3478;51.462;7.338;2023-08-08T18:52:36;16.80;99.90
6879;DHT22;3478;51.462;7.338;2023-08-08T18:57:38;16.70;99.90
6879;DHT22;3478;51.462;7.338;2023-08-08T19:02:40;16.60;99.90
6879;DHT22;3478;51.462;7.338;2023-08-08T19:07:44;16.50;99.90
6879;DHT22;3478;51.462;7.338;2023-08-08T19:12:45;16.50;99.90
6879;DHT22;3478;51.462;7.338;2023-08-08T19:17:47;16.40;99.90
6879;DHT22;3478;51.462;7.338;2023-08-08T19:22:51;16.30;99.90
6879;DHT22;3478;51.462;7.338;2023-08-08T19:27:54;16.30;99.90
6879;DHT22;3478;51.462;7.338;2023-08-08T19:32:56;16.20;99.90
6879;DHT22;3478;51.462;7.338;2023-08-08T19:37:59;16.10;99.90
6879;DHT22;3478;51.462;7.338;2023-08-08T19:43:01;16.00;99.90
6879;DHT22;3478;51.462;7.338;2023-08-08T19:48:04;15.90;99.90
6879;DHT22;3478;51.462;7.338;2023-08-08T19:53:07;15.80;99.90
6879;DHT22;3478;51.462;7.338;2023-08-08T19:58:09;15.70;99.90
6879;DHT22;3478;51.462;7.338;2023-08-08T20:03:11;15.70;99.90
6879;DHT22;3478;51.462;7.338;2023-08-08T20:08:14;15.70;99.90
6879;DHT22;3478;51.462;7.338;2023-08-08T20:13:17;15.60;99.90
6879;DHT22;3478;51.462;7.338;2023-08-08T20:18:18;15.50;99.90
6879;DHT22;3478;51.462;7.338;2023-08-08T20:23:22;15.50;99.90
6879;DHT22;3478;51.462;7.338;2023-08-08T20:28:24;15.50;99.90
6879;DHT22;3478;51.462;7.338;2023-08-08T20:33:26;15.40;99.90
6879;DHT22;3478;51.462;7.338;2023-08-08T20:38:29;15.30;99.90
6879;DHT22;3478;51.462;7.338;2023-08-08T20:43:32;15.10;99.90
6879;DHT22;3478;51.462;7.338;2023-08-08T20:48:34;15.10;99.90
6879;DHT22;3478;51.462;7.338;2023-08-08T20:53:37;15.00;99.90
6879;DHT22;3478;51.462;7.338;2023-08-08T20:58:39;14.90;99.90
6879;DHT22;3478;51.462;7.338;2023-08-08T21:03:41;14.90;99.90
6879;DHT22;3478;51.462;7.338;2023-08-08T21:08:45;15.00;99.90
6879;DHT22;3478;51.462;7.338;2023-08-08T21:13:46;15.00;99.90
6879;DHT22;3478;51.462;7.338;2023-08-08T21:18:48;15.00;99.90
6879;DHT22;3478;51.462;7.338;2023-08-08T21:23:51;15.00;99.90
6879;DHT22;3478;51.462;7.338;2023-08-08T21:28:54;15.00;99.90
6879;DHT22;3478;51.462;7.338;2023-08-08T21:33:56;15.00;99.90
6879;DHT22;3478;51.462;7.338;2023-08-08T21:39:00;15.00;99.90
6879;DHT22;3478;51.462;7.338;2023-08-08T21:44:03;14.90;99.90
6879;DHT22;3478;51.462;7.338;2023-08-08T21:49:05;14.90;99.90
6879;DHT22;3478;51.462;7.338;2023-08-08T21:54:09;14.80;99.90
6879;DHT22;3478;51.462;7.338;2023-08-08T21:59:11;14.90;99.90
6879;DHT22;3478;51.462;7.338;2023-08-08T22:04:12;14.80;99.90
6879;DHT22;3478;51.462;7.338;2023-08-08T22:09:16;14.80;99.90
6879;DHT22;3478;51.462;7.338;2023-08-08T22:14:18;14.80;99.90
6879;DHT22;3478;51.462;7.338;2023-08-08T22:19:19;14.80;99.90
6879;DHT22;3478;51.462;7.338;2023-08-08T22:24:23;14.70;99.90
6879;DHT22;3478;51.462;7.338;2023-08-08T22:29:25;14.80;99.90
6879;DHT22;3478;51.462;7.338;2023-08-08T22:34:27;14.80;99.90
6879;DHT22;3478;51.462;7.338;2023-08-08T22:39:30;14.80;99.90
6879;DHT22;3478;51.462;7.338;2023-08-08T22:44:32;14.80;99.90
6879;DHT22;3478;51.462;7.338;2023-08-08T22:49:34;14.80;99.90
6879;DHT22;3478;51.462;7.338;2023-08-08T22:54:37;14.80;99.90
6879;DHT22;3478;51.462;7.338;2023-08-08T22:59:39;14.80;99.90
6879;DHT22;3478;51.462;7.338;2023-08-08T23:04:41;14.80;99.90
6879;DHT22;3478;51.462;7.338;2023-08-08T23:09:44;14.80;99.90
6879;DHT22;3478;51.462;7.338;2023-08-08T23:14:48;14.90;99.90
6879;DHT22;3478;51.462;7.338;2023-08-08T23:19:50;14.80;99.90
6879;DHT22;3478;51.462;7.338;2023-08-08T23:24:53;14.80;99.90
6879;DHT22;3478;51.462;7.338;2023-08-08T23:29:56;14.80;99.90
6879;DHT22;3478;51.462;7.338;2023-08-08T23:34:58;14.80;99.90
6879;DHT22;3478;51.462;7.338;2023-08-08T23:40:01;14.80;99.90
6879;DHT22;3478;51.462;7.338;2023-08-08T23:45:05;14.90;99.90
6879;DHT22;3478;51.462;7.338;2023-08-08T23:50:08;14.80;99.90
6879;DHT22;3478;51.462;7.338;2023-08-08T23:55:11;14.80;99.90
